createdAt,value
2019-05-22T00:01:39.405Z,91.20
2019-05-22T00:04:13.377Z,91.32
2019-05-22T00:06:45.250Z,90.15
2019-05-22T00:09:20.450Z,90.61
2019-05-22T00:11:52.085Z,91.37
2019-05-22T00:14:22.303Z,90.65
2019-05-22T00:16:51.985Z,89.95
2019-05-22T00:19:22.525Z,89.31
2019-05-22T00:21:53.737Z,89.38
2019-05-22T00:24:26.462Z,89.60
2019-05-22T00:26:55.872Z,90.04
2019-05-22T00:29:26.245Z,90.27
2019-05-22T00:31:56.988Z,90.79
2019-05-22T00:34:27.939Z,91.27
2019-05-22T00:36:57.569Z,91.57
2019-05-22T00:39:28.536Z,91.34
2019-05-22T00:41:58.148Z,91.30
2019-05-22T00:44:29.126Z,91.89
2019-05-22T00:47:00.819Z,92.01
2019-05-22T00:49:31.054Z,92.50
2019-05-22T00:52:19.916Z,92.65
2019-05-22T00:54:59.256Z,92.53
2019-05-22T00:57:42.166Z,93.17
2019-05-22T01:00:24.122Z,93.44
2019-05-22T01:02:56.961Z,92.71
2019-05-22T01:05:29.428Z,93.24
2019-05-22T01:08:00.455Z,92.91
2019-05-22T01:10:30.046Z,92.85
2019-05-22T01:13:01.197Z,93.70
2019-05-22T01:15:31.619Z,93.37
2019-05-22T01:18:04.660Z,93.49
2019-05-22T01:20:34.508Z,93.32
2019-05-22T01:23:03.939Z,92.75
2019-05-22T01:25:34.224Z,92.82
2019-05-22T01:28:04.160Z,92.60
2019-05-22T01:30:44.451Z,92.05
2019-05-22T01:33:18.627Z,92.84
2019-05-22T01:36:01.465Z,93.25
2019-05-22T01:38:32.567Z,92.58
2019-05-22T01:41:18.475Z,92.80
2019-05-22T01:43:50.177Z,92.71
2019-05-22T01:46:21.673Z,92.63
2019-05-22T01:48:53.757Z,93.53
2019-05-22T01:51:23.152Z,92.74
2019-05-22T01:53:53.916Z,92.64
2019-05-22T01:56:24.692Z,92.78
2019-05-22T01:58:54.725Z,92.63
2019-05-22T02:01:26.883Z,93.03
2019-05-22T02:03:56.437Z,92.80
2019-05-22T02:06:26.382Z,92.35
2019-05-22T02:09:00.001Z,92.72
2019-05-22T02:11:30.186Z,93.25
2019-05-22T02:14:14.027Z,93.84
2019-05-22T02:16:56.192Z,94.85
2019-05-22T02:19:16.462Z,93.54
2019-05-22T02:21:45.912Z,93.31
2019-05-22T02:24:15.924Z,92.91
2019-05-22T02:26:45.964Z,93.22
2019-05-22T02:29:17.336Z,92.19
2019-05-22T02:31:47.999Z,92.78
2019-05-22T02:34:18.374Z,93.18
2019-05-22T02:36:48.552Z,93.29
2019-05-22T02:39:19.830Z,93.33
2019-05-22T02:41:54.070Z,93.91
2019-05-22T02:44:25.270Z,94.04
2019-05-22T02:47:14.384Z,94.30
2019-05-22T02:49:29.892Z,94.15
2019-05-22T02:52:00.841Z,93.86
2019-05-22T02:54:32.490Z,94.33
2019-05-22T02:57:03.534Z,94.41
2019-05-22T02:59:32.974Z,93.93
2019-05-22T03:02:03.781Z,94.54
2019-05-22T03:04:54.703Z,94.53
2019-05-22T03:07:25.816Z,96.49
2019-05-22T03:09:56.402Z,96.49
2019-05-22T03:12:27.690Z,96.01
2019-05-22T03:14:58.023Z,95.90
2019-05-22T03:17:30.560Z,96.17
2019-05-22T03:20:03.860Z,95.50
2019-05-22T03:22:48.434Z,95.93
2019-05-22T03:25:18.219Z,96.42
2019-05-22T03:27:50.222Z,96.51
2019-05-22T03:30:31.103Z,96.40
2019-05-22T03:33:06.235Z,96.36
2019-05-22T03:35:42.322Z,95.72
2019-05-22T03:38:12.880Z,95.62
2019-05-22T03:40:42.720Z,95.60
2019-05-22T03:43:24.449Z,96.14
2019-05-22T03:45:55.766Z,95.87
2019-05-22T03:48:26.386Z,95.87
2019-05-22T03:51:01.001Z,96.04
2019-05-22T03:53:30.476Z,96.28
2019-05-22T03:55:59.886Z,96.97
2019-05-22T03:58:29.352Z,97.42
2019-05-22T04:00:59.331Z,96.17
2019-05-22T04:03:29.006Z,95.55
2019-05-22T04:05:59.439Z,95.35
2019-05-22T04:08:29.010Z,95.33
2019-05-22T04:11:01.876Z,96.24
2019-05-22T04:13:32.874Z,95.37
2019-05-22T04:16:05.114Z,95.08
2019-05-22T04:18:35.859Z,94.96
2019-05-22T04:21:05.893Z,94.50
2019-05-22T04:23:36.683Z,94.27
2019-05-22T04:26:08.625Z,94.53
2019-05-22T04:28:50.948Z,94.34
2019-05-22T04:31:23.042Z,94.78
2019-05-22T04:33:53.078Z,94.63
2019-05-22T04:36:23.995Z,94.56
2019-05-22T04:38:53.858Z,94.62
2019-05-22T04:41:23.458Z,94.87
2019-05-22T04:43:53.607Z,94.10
2019-05-22T04:46:23.323Z,93.49
2019-05-22T04:48:53.978Z,93.49
2019-05-22T04:51:26.495Z,93.53
2019-05-22T04:53:58.262Z,93.27
2019-05-22T04:56:28.529Z,93.62
2019-05-22T04:58:59.560Z,93.70
2019-05-22T05:01:30.203Z,94.40
2019-05-22T05:03:59.779Z,93.78
2019-05-22T05:06:31.132Z,94.03
2019-05-22T05:09:00.552Z,93.77
2019-05-22T05:11:30.395Z,94.19
2019-05-22T05:14:00.193Z,94.88
2019-05-22T05:16:29.573Z,93.89
2019-05-22T05:18:59.382Z,93.65
2019-05-22T05:21:29.534Z,93.80
2019-05-22T05:23:59.113Z,94.13
2019-05-22T05:26:31.543Z,93.58
2019-05-22T05:29:01.212Z,93.58
2019-05-22T05:31:30.683Z,94.19
2019-05-22T05:34:17.801Z,94.13
2019-05-22T05:36:47.571Z,93.72
2019-05-22T05:39:39.997Z,93.71
2019-05-22T05:42:09.550Z,93.87
2019-05-22T05:44:39.123Z,93.76
2019-05-22T05:47:08.709Z,93.91
2019-05-22T05:49:39.141Z,94.24
2019-05-22T05:52:10.114Z,94.41
2019-05-22T05:54:39.488Z,94.74
2019-05-22T05:57:35.537Z,95.04
2019-05-22T06:00:10.279Z,95.51
2019-05-22T06:02:54.009Z,95.68
2019-05-22T06:05:11.280Z,95.68
2019-05-22T06:07:40.995Z,96.03
2019-05-22T06:10:29.522Z,96.07
2019-05-22T06:13:00.471Z,95.95
2019-05-22T06:15:47.595Z,95.72
2019-05-22T06:18:34.656Z,95.73
2019-05-22T06:21:06.088Z,95.42
2019-05-22T06:23:42.179Z,95.69
2019-05-22T06:26:16.635Z,95.70
2019-05-22T06:28:46.848Z,96.09
2019-05-22T06:31:40.854Z,95.97
2019-05-22T06:34:10.650Z,95.74
2019-05-22T06:36:40.384Z,95.46
2019-05-22T06:39:10.075Z,95.16
2019-05-22T06:41:41.251Z,94.84
2019-05-22T06:44:28.310Z,95.01
2019-05-22T06:46:58.134Z,94.55
2019-05-22T06:49:35.663Z,93.85
2019-05-22T06:52:07.239Z,93.26
2019-05-22T06:54:37.344Z,92.96
2019-05-22T06:57:09.409Z,92.71
2019-05-22T06:59:39.741Z,92.36
2019-05-22T07:02:10.313Z,92.10
2019-05-22T07:04:39.674Z,92.12
2019-05-22T07:07:11.853Z,91.40
2019-05-22T07:09:42.075Z,91.22
2019-05-22T07:12:14.318Z,91.33
2019-05-22T07:15:06.750Z,91.28
2019-05-22T07:17:37.398Z,91.32
2019-05-22T07:20:07.519Z,90.86
2019-05-22T07:22:37.544Z,91.04
2019-05-22T07:25:09.467Z,91.36
2019-05-22T07:27:39.795Z,91.37
2019-05-22T07:30:10.333Z,91.43
2019-05-22T07:32:40.084Z,91.21
2019-05-22T07:35:09.578Z,90.94
2019-05-22T07:37:40.875Z,90.96
2019-05-22T07:40:11.419Z,90.33
2019-05-22T07:42:40.858Z,90.19
2019-05-22T07:45:12.373Z,89.84
2019-05-22T07:47:42.711Z,88.56
2019-05-22T07:50:13.412Z,88.14
2019-05-22T07:52:43.743Z,88.58
2019-05-22T07:55:13.961Z,88.72
2019-05-22T07:57:48.586Z,88.68
2019-05-22T08:00:19.953Z,88.87
2019-05-22T08:02:50.334Z,88.95
2019-05-22T08:05:21.420Z,88.95
2019-05-22T08:07:51.357Z,89.29
2019-05-22T08:10:22.018Z,89.71
2019-05-22T08:12:51.806Z,89.63
2019-05-22T08:15:22.057Z,89.60
2019-05-22T08:17:51.535Z,89.33
2019-05-22T08:20:21.180Z,89.41
2019-05-22T08:22:51.337Z,89.48
2019-05-22T08:25:20.844Z,89.77
2019-05-22T08:27:50.617Z,89.07
2019-05-22T08:30:21.224Z,88.71
2019-05-22T08:32:50.891Z,88.21
2019-05-22T08:35:20.863Z,88.24
2019-05-22T08:37:53.410Z,88.38
2019-05-22T08:40:23.558Z,88.39
2019-05-22T08:42:53.105Z,88.31
2019-05-22T08:45:23.139Z,87.76
2019-05-22T08:47:52.825Z,86.18
2019-05-22T08:50:24.449Z,86.64
2019-05-22T08:52:53.959Z,86.83
2019-05-22T08:55:24.826Z,85.31
2019-05-22T08:57:54.489Z,84.74
2019-05-22T09:00:25.158Z,84.74
2019-05-22T09:02:54.695Z,85.32
2019-05-22T09:05:24.118Z,84.79
2019-05-22T09:07:53.585Z,84.44
2019-05-22T09:10:26.236Z,84.07
2019-05-22T09:12:54.913Z,83.58
2019-05-22T09:15:25.474Z,82.89
2019-05-22T09:17:54.946Z,82.80
2019-05-22T09:20:24.633Z,82.36
2019-05-22T09:22:54.771Z,82.61
2019-05-22T09:25:24.365Z,82.13
2019-05-22T09:27:53.789Z,81.92
2019-05-22T09:30:24.296Z,81.62
2019-05-22T09:32:54.143Z,79.61
2019-05-22T09:35:24.161Z,79.35
2019-05-22T09:37:53.671Z,79.00
2019-05-22T09:40:23.258Z,78.90
2019-05-22T09:42:52.759Z,78.15
2019-05-22T09:45:22.665Z,78.56
2019-05-22T09:47:53.075Z,78.35
2019-05-22T09:50:24.180Z,77.64
2019-05-22T09:52:58.004Z,78.83
2019-05-22T09:55:25.459Z,79.14
2019-05-22T09:57:55.322Z,77.25
2019-05-22T10:00:25.163Z,76.50
2019-05-22T10:02:54.745Z,76.80
2019-05-22T10:05:24.777Z,77.39
2019-05-22T10:08:00.922Z,75.87
2019-05-22T10:10:26.741Z,74.55
2019-05-22T10:12:56.649Z,74.37
2019-05-22T10:15:26.429Z,74.67
2019-05-22T10:17:55.975Z,74.67
2019-05-22T10:20:26.117Z,75.35
2019-05-22T10:22:55.713Z,75.62
2019-05-22T10:25:25.407Z,75.68
2019-05-22T10:27:58.977Z,75.68
2019-05-22T10:30:26.208Z,75.34
2019-05-22T10:32:55.697Z,75.41
2019-05-22T10:35:26.742Z,76.02
2019-05-22T10:37:56.729Z,75.65
2019-05-22T10:40:27.062Z,75.21
2019-05-22T10:42:57.194Z,75.45
2019-05-22T10:45:27.551Z,75.16
2019-05-22T10:47:58.284Z,74.79
2019-05-22T10:50:28.495Z,74.55
2019-05-22T10:52:58.594Z,75.25
2019-05-22T10:55:30.138Z,74.71
2019-05-22T10:58:00.129Z,74.74
2019-05-22T11:00:30.558Z,74.89
2019-05-22T11:03:00.011Z,75.45
2019-05-22T11:05:30.102Z,73.64
2019-05-22T11:07:59.802Z,73.24
2019-05-22T11:10:29.642Z,73.94
2019-05-22T11:12:59.396Z,73.79
2019-05-22T11:15:29.812Z,73.53
2019-05-22T11:17:59.389Z,71.77
2019-05-22T11:20:30.032Z,71.93
2019-05-22T11:22:59.787Z,72.73
2019-05-22T11:25:29.500Z,73.78
2019-05-22T11:28:00.109Z,74.00
2019-05-22T11:30:29.843Z,74.37
2019-05-22T11:32:59.895Z,73.31
2019-05-22T11:35:30.622Z,72.41
2019-05-22T11:37:59.989Z,71.99
2019-05-22T11:40:29.372Z,72.20
2019-05-22T11:42:59.086Z,72.24
2019-05-22T11:45:29.850Z,72.68
2019-05-22T11:47:59.223Z,72.49
2019-05-22T11:50:30.529Z,72.15
2019-05-22T11:52:59.953Z,71.83
2019-05-22T11:55:44.247Z,71.51
2019-05-22T11:58:02.542Z,71.36
2019-05-22T12:00:32.469Z,70.85
2019-05-22T12:03:02.198Z,70.29
2019-05-22T12:05:33.945Z,69.62
2019-05-22T12:08:03.479Z,68.76
2019-05-22T12:10:33.523Z,69.34
2019-05-22T12:13:03.862Z,68.39
2019-05-22T12:15:35.084Z,69.34
2019-05-22T12:18:04.948Z,70.37
2019-05-22T12:20:34.476Z,67.81
2019-05-22T12:23:03.892Z,64.87
2019-05-22T12:25:34.509Z,63.54
2019-05-22T12:28:05.075Z,63.93
2019-05-22T12:30:35.412Z,63.63
2019-05-22T12:33:13.127Z,61.84
2019-05-22T12:35:39.891Z,61.51
2019-05-22T12:38:10.063Z,62.87
2019-05-22T12:40:39.894Z,62.96
2019-05-22T12:43:10.300Z,62.31
2019-05-22T12:45:39.769Z,60.02
2019-05-22T12:48:09.400Z,60.09
2019-05-22T12:50:39.269Z,61.07
2019-05-22T12:53:09.254Z,59.13
2019-05-22T12:55:39.916Z,56.11
2019-05-22T12:58:11.045Z,56.61
2019-05-22T13:00:41.370Z,57.12
2019-05-22T13:03:11.688Z,56.84
2019-05-22T13:05:41.270Z,58.21
2019-05-22T13:08:12.521Z,57.19
2019-05-22T13:10:42.025Z,57.10
2019-05-22T13:13:11.584Z,54.37
2019-05-22T13:15:41.798Z,55.66
2019-05-22T13:18:13.060Z,55.19
2019-05-22T13:20:44.988Z,55.53
2019-05-22T13:23:17.002Z,57.27
2019-05-22T13:25:46.390Z,56.68
2019-05-22T13:28:18.318Z,55.92
2019-05-22T13:30:51.065Z,57.40
2019-05-22T13:33:22.365Z,57.32
2019-05-22T13:35:52.085Z,56.42
2019-05-22T13:38:21.639Z,56.85
2019-05-22T13:40:52.063Z,54.87
2019-05-22T13:43:21.420Z,55.18
2019-05-22T13:45:50.861Z,55.34
2019-05-22T13:48:20.412Z,52.92
2019-05-22T13:50:50.627Z,52.05
2019-05-22T13:53:21.442Z,51.22
2019-05-22T13:55:52.012Z,52.62
2019-05-22T13:58:23.662Z,53.71
2019-05-22T14:00:53.214Z,54.85
2019-05-22T14:03:24.013Z,55.46
2019-05-22T14:05:54.656Z,54.14
2019-05-22T14:08:24.778Z,54.00
2019-05-22T14:10:54.610Z,53.53
2019-05-22T14:13:26.369Z,53.07
2019-05-22T14:15:57.272Z,50.24
2019-05-22T14:18:27.670Z,50.75
2019-05-22T14:20:57.325Z,52.00
2019-05-22T14:23:26.782Z,52.29
2019-05-22T14:25:56.425Z,51.37
2019-05-22T14:28:27.384Z,50.04
2019-05-22T14:30:57.408Z,49.73
2019-05-22T14:33:28.293Z,52.17
2019-05-22T14:35:59.163Z,50.60
2019-05-22T14:38:29.210Z,50.94
2019-05-22T14:40:58.578Z,50.09
2019-05-22T14:43:29.102Z,49.66
2019-05-22T14:45:58.863Z,48.67
2019-05-22T14:48:28.549Z,47.81
2019-05-22T14:50:59.243Z,47.66
2019-05-22T14:53:28.973Z,47.45
2019-05-22T14:55:59.483Z,46.48
2019-05-22T14:58:29.084Z,46.09
2019-05-22T15:00:58.473Z,47.52
2019-05-22T15:03:28.219Z,48.42
2019-05-22T15:05:57.626Z,48.93
2019-05-22T15:08:27.289Z,48.73
2019-05-22T15:10:57.928Z,49.49
2019-05-22T15:13:27.627Z,49.70
2019-05-22T15:15:57.514Z,50.24
2019-05-22T15:18:26.937Z,50.09
2019-05-22T15:21:08.307Z,49.08
2019-05-22T15:23:38.519Z,49.44
2019-05-22T15:26:13.551Z,49.17
2019-05-22T15:29:02.713Z,49.32
2019-05-22T15:31:38.370Z,49.62
2019-05-22T15:34:07.828Z,47.75
2019-05-22T15:36:37.854Z,48.67
2019-05-22T15:39:08.817Z,48.95
2019-05-22T15:41:38.639Z,48.79
2019-05-22T15:44:08.648Z,48.43
2019-05-22T15:46:41.367Z,47.89
2019-05-22T15:49:10.853Z,47.73
2019-05-22T15:51:43.131Z,47.45
2019-05-22T15:54:14.187Z,48.40
2019-05-22T15:56:45.406Z,47.00
2019-05-22T15:59:15.057Z,46.42
2019-05-22T16:01:46.085Z,46.38
2019-05-22T16:04:16.564Z,47.47
2019-05-22T16:06:47.002Z,47.91
2019-05-22T16:09:17.969Z,47.54
2019-05-22T16:11:50.526Z,48.60
2019-05-22T16:14:19.895Z,48.89
2019-05-22T16:16:49.858Z,48.32
2019-05-22T16:19:21.195Z,48.67
2019-05-22T16:21:52.147Z,49.68
2019-05-22T16:24:22.311Z,50.27
2019-05-22T16:26:52.471Z,50.27
2019-05-22T16:29:22.038Z,50.08
2019-05-22T16:31:51.833Z,50.44
2019-05-22T16:34:21.991Z,50.36
2019-05-22T16:36:52.288Z,51.25
2019-05-22T16:39:22.338Z,49.68
2019-05-22T16:41:52.299Z,49.68
2019-05-22T16:44:22.082Z,49.02
2019-05-22T16:46:52.015Z,49.02
2019-05-22T16:49:22.261Z,49.95
2019-05-22T16:51:52.750Z,50.19
2019-05-22T16:54:22.866Z,50.87
2019-05-22T16:56:53.216Z,51.27
2019-05-22T16:59:23.293Z,51.57
2019-05-22T17:01:59.288Z,50.76
2019-05-22T17:04:23.926Z,51.24
2019-05-22T17:06:53.978Z,51.35
2019-05-22T17:09:23.951Z,51.31
2019-05-22T17:11:53.567Z,51.97
2019-05-22T17:14:24.961Z,51.99
2019-05-22T17:16:54.518Z,52.33
2019-05-22T17:19:27.451Z,52.47
2019-05-22T17:21:55.789Z,52.88
2019-05-22T17:24:27.153Z,53.05
2019-05-22T17:26:57.550Z,53.47
2019-05-22T17:29:27.344Z,53.63
2019-05-22T17:31:57.959Z,53.98
2019-05-22T17:34:35.135Z,54.45
2019-05-22T17:37:08.128Z,53.24
2019-05-22T17:39:39.254Z,53.25
2019-05-22T17:42:10.542Z,53.58
2019-05-22T17:44:42.733Z,53.78
2019-05-22T17:47:13.368Z,53.67
2019-05-22T17:49:42.812Z,53.75
2019-05-22T17:52:13.410Z,53.88
2019-05-22T17:54:42.794Z,53.90
2019-05-22T17:57:13.811Z,54.26
2019-05-22T17:59:43.546Z,54.04
2019-05-22T18:02:16.558Z,54.85
2019-05-22T18:04:45.928Z,55.05
2019-05-22T18:07:16.786Z,55.15
2019-05-22T18:09:46.160Z,55.60
2019-05-22T18:12:16.003Z,55.81
2019-05-22T18:14:46.787Z,55.20
2019-05-22T18:17:16.247Z,55.90
2019-05-22T18:19:45.634Z,56.05
2019-05-22T18:22:16.454Z,56.33
2019-05-22T18:24:46.194Z,56.71
2019-05-22T18:27:16.849Z,56.95
2019-05-22T18:29:46.217Z,56.89
2019-05-22T18:32:16.163Z,57.34
2019-05-22T18:34:45.525Z,57.43
2019-05-22T18:37:15.199Z,57.53
2019-05-22T18:39:44.944Z,57.86
2019-05-22T18:42:14.642Z,58.48
2019-05-22T18:44:44.010Z,58.67
2019-05-22T18:47:21.275Z,58.70
2019-05-22T18:49:50.795Z,59.31
2019-05-22T18:52:20.785Z,59.55
2019-05-22T18:54:50.232Z,59.69
2019-05-22T18:57:19.971Z,59.96
2019-05-22T18:59:49.669Z,60.32
2019-05-22T19:02:19.241Z,60.54
2019-05-22T19:04:49.100Z,60.91
2019-05-22T19:07:18.854Z,61.21
2019-05-22T19:09:48.227Z,61.63
2019-05-22T19:12:18.367Z,61.93
2019-05-22T19:14:47.808Z,62.18
2019-05-22T19:17:17.283Z,62.36
2019-05-22T19:19:46.765Z,62.88
2019-05-22T19:22:16.816Z,63.08
2019-05-22T19:24:46.189Z,63.27
2019-05-22T19:27:15.944Z,63.83
2019-05-22T19:29:45.332Z,64.03
2019-05-22T19:32:15.921Z,64.19
2019-05-22T19:34:45.411Z,64.33
2019-05-22T19:37:17.178Z,64.58
2019-05-22T19:39:46.910Z,64.81
2019-05-22T19:42:16.643Z,65.03
2019-05-22T19:44:46.098Z,65.06
2019-05-22T19:47:16.499Z,65.39
2019-05-22T19:49:46.053Z,65.39
2019-05-22T19:52:22.135Z,65.62
2019-05-22T19:54:48.880Z,65.41
2019-05-22T19:57:18.481Z,65.41
2019-05-22T19:59:48.113Z,66.00
2019-05-22T20:02:18.853Z,66.22
2019-05-22T20:04:48.298Z,66.42
2019-05-22T20:07:23.925Z,66.61
2019-05-22T20:31:04.082Z,69.66
2019-05-22T20:33:33.754Z,69.88
2019-05-22T20:36:03.152Z,70.19
2019-05-22T20:38:32.887Z,70.50
2019-05-22T20:41:02.239Z,70.98
2019-05-22T20:43:32.907Z,71.31
2019-05-22T20:46:02.809Z,71.41
2019-05-22T20:48:33.812Z,71.80
2019-05-22T20:51:04.656Z,72.33
2019-05-22T20:53:52.182Z,72.84
2019-05-22T20:56:08.068Z,73.19
2019-05-22T20:58:39.110Z,73.47
2019-05-22T21:01:10.402Z,73.68
2019-05-22T21:03:40.926Z,73.87
2019-05-22T21:06:12.378Z,74.01
2019-05-22T21:08:43.445Z,74.03
2019-05-22T21:11:16.238Z,74.04
2019-05-22T21:13:46.157Z,74.00
2019-05-22T21:16:17.523Z,74.08
2019-05-22T21:18:49.428Z,74.24
2019-05-22T21:21:19.267Z,74.40
2019-05-22T21:23:49.247Z,74.65
2019-05-22T21:26:20.606Z,74.99
2019-05-22T21:28:50.041Z,75.10
2019-05-22T21:31:20.701Z,75.20
2019-05-22T21:33:50.889Z,75.43
2019-05-22T21:36:20.629Z,75.80
2019-05-22T21:38:50.640Z,76.10
2019-05-22T21:41:21.922Z,76.43
2019-05-22T21:43:52.014Z,76.73
2019-05-22T21:46:21.998Z,76.94
2019-05-22T21:48:55.215Z,77.00
2019-05-22T21:51:24.690Z,77.12
2019-05-22T21:53:54.458Z,77.26
2019-05-22T21:56:24.935Z,77.50
2019-05-22T21:58:54.417Z,77.71
2019-05-22T22:01:29.307Z,77.87
2019-05-22T22:04:03.533Z,78.09
2019-05-22T22:06:34.684Z,78.20
2019-05-22T22:09:06.487Z,78.33
2019-05-22T22:11:36.826Z,78.65
2019-05-22T22:14:07.266Z,78.91
2019-05-22T22:16:36.750Z,79.07
2019-05-22T22:19:07.398Z,79.06
2019-05-22T22:21:38.695Z,79.05
2019-05-22T22:24:09.458Z,79.19
2019-05-22T22:26:39.152Z,79.36
2019-05-22T22:29:09.524Z,79.66
2019-05-22T22:31:40.670Z,79.91
2019-05-22T22:34:19.315Z,80.11
2019-05-22T22:36:49.159Z,80.21
2019-05-22T22:39:19.986Z,80.20
2019-05-22T22:41:50.583Z,80.24
2019-05-22T22:44:20.592Z,80.40
2019-05-22T22:46:52.124Z,80.66
2019-05-22T22:49:23.445Z,80.85
2019-05-22T22:51:53.085Z,80.93
2019-05-22T22:54:23.253Z,81.10
2019-05-22T22:56:53.401Z,81.26
2019-05-22T22:59:22.845Z,81.25
2019-05-22T23:01:54.939Z,81.30
2019-05-22T23:04:26.586Z,81.40
2019-05-22T23:06:58.826Z,81.43
2019-05-22T23:09:29.459Z,81.43
2019-05-22T23:11:59.794Z,81.45
2019-05-22T23:14:29.543Z,81.52
2019-05-22T23:16:59.090Z,81.63
2019-05-22T23:19:37.923Z,81.86
2019-05-22T23:22:08.080Z,82.26
2019-05-22T23:24:38.905Z,82.56
2019-05-22T23:27:10.128Z,82.59
2019-05-22T23:29:40.527Z,82.61
2019-05-22T23:32:11.934Z,82.57
2019-05-22T23:34:41.570Z,82.60
2019-05-22T23:37:13.074Z,82.74
2019-05-22T23:39:42.510Z,82.78
2019-05-22T23:42:16.148Z,82.84
2019-05-22T23:44:46.197Z,82.90
2019-05-22T23:47:15.666Z,82.94
2019-05-22T23:49:46.972Z,83.08
2019-05-22T23:52:16.629Z,83.16
2019-05-22T23:54:46.002Z,83.15
2019-05-22T23:57:16.717Z,83.16
2019-05-22T23:59:49.106Z,83.15
